Terminal Aerodrome Forecast
Issued by NWS

Home | Current Version | Previous Version | Text Only | Print | Product List | Glossary On
Versions: 1 2 3 4 5 6 7 8 9 10 11 12 13 14 15 16 17 18 19 20
152
FTUS43 KMQT 140619 AAA
TAFCMX
TAF AMD
KCMX 140619Z 1406/1506 36006KT 2SM -SHSN BKN020
     FM140900 34006KT 6SM -SHSN OVC020
     FM141200 33005KT P6SM -SHSN BKN015
     FM141300 32005KT P6SM -SHSN BKN020
     FM141900 30009KT P6SM -SHSN BKN030
     FM150300 30008KT 1SM -SHSN OVC015=

USA.gov is the U.S. government's official web portal to all federal, state and local government web resources and services.